Terminal Aerodrome Forecast
Issued by NWS Cleveland, OH

Home | Current Version | Previous Version | Graphics & Text | Print | Product List | Glossary Off
Versions: 1 2 3 4 5 6 7 8 9 10 11 12 13 14 15 16 17

716
FTUS41 KCLE 050557 CCA
TAFTOL
TAF COR
KTOL 050557Z 0506/0606 23008KT 4SM BR OVC006
     FM050900 27010KT 4SM BR OVC015
     FM051200 26007KT 6SM BR OVC007
     FM051500 24007KT P6SM OVC015
     FM052000 19005KT P6SM SCT250=

USA.gov is the U.S. government's official web portal to all federal, state and local government web resources and services.